sensor_id;sensor_type;location;lat;lon;timestamp;pressure;altitude;pressure_sealevel;temperature;humidity
71601;BME280;59446;52.192;4.628;2023-03-23T21:53:04;99890.06;;;18.33;58.31
71601;BME280;59446;52.192;4.628;2023-03-23T21:55:31;99883.09;;;18.44;58.31
71601;BME280;59446;52.192;4.628;2023-03-23T21:57:57;99883.56;;;18.49;57.98
71601;BME280;59446;52.192;4.628;2023-03-23T22:00:23;99885.13;;;18.52;57.96
71601;BME280;59446;52.192;4.628;2023-03-23T22:02:49;99891.94;;;18.55;57.83
71601;BME280;59446;52.192;4.628;2023-03-23T22:05:16;99885.72;;;18.56;57.93
71601;BME280;59446;52.192;4.628;2023-03-23T22:07:41;99869.56;;;18.60;57.59
71601;BME280;59446;52.192;4.628;2023-03-23T22:10:08;99867.41;;;18.65;57.25
71601;BME280;59446;52.192;4.628;2023-03-23T22:12:35;99863.81;;;18.66;57.33
71601;BME280;59446;52.192;4.628;2023-03-23T22:15:08;99854.09;;;18.67;57.03
71601;BME280;59446;52.192;4.628;2023-03-23T22:17:37;99860.34;;;18.66;57.11
71601;BME280;59446;52.192;4.628;2023-03-23T22:20:08;99849.66;;;18.67;56.86
71601;BME280;59446;52.192;4.628;2023-03-23T22:22:35;99849.66;;;18.67;56.86
71601;BME280;59446;52.192;4.628;2023-03-23T22:25:00;99833.00;;;18.67;56.88
71601;BME280;59446;52.192;4.628;2023-03-23T22:27:26;99837.31;;;18.68;56.80
71601;BME280;59446;52.192;4.628;2023-03-23T22:29:51;99834.69;;;18.68;56.55
71601;BME280;59446;52.192;4.628;2023-03-23T22:32:17;99833.13;;;18.65;56.86
71601;BME280;59446;52.192;4.628;2023-03-23T22:34:43;99825.94;;;18.67;56.63
71601;BME280;59446;52.192;4.628;2023-03-23T22:37:09;99818.13;;;18.66;56.45
71601;BME280;59446;52.192;4.628;2023-03-23T22:39:34;99812.03;;;18.65;56.35
71601;BME280;59446;52.192;4.628;2023-03-23T22:42:00;99808.56;;;18.65;56.21
71601;BME280;59446;52.192;4.628;2023-03-23T22:44:25;99811.19;;;18.65;56.52
71601;BME280;59446;52.192;4.628;2023-03-23T22:46:51;99807.84;;;18.63;56.23
71601;BME280;59446;52.192;4.628;2023-03-23T22:49:16;99801.84;;;18.61;56.10
71601;BME280;59446;52.192;4.628;2023-03-23T22:51:42;99793.94;;;18.61;56.47
71601;BME280;59446;52.192;4.628;2023-03-23T22:54:08;99802.81;;;18.60;55.98
71601;BME280;59446;52.192;4.628;2023-03-23T22:56:34;99781.09;;;18.56;56.36
71601;BME280;59446;52.192;4.628;2023-03-23T22:59:01;99780.25;;;18.56;56.27
71601;BME280;59446;52.192;4.628;2023-03-23T23:01:26;99765.50;;;18.53;56.01
71601;BME280;59446;52.192;4.628;2023-03-23T23:03:52;99763.84;;;18.52;56.13
71601;BME280;59446;52.192;4.628;2023-03-23T23:06:19;99768.28;;;18.52;55.97
71601;BME280;59446;52.192;4.628;2023-03-23T23:08:45;99759.06;;;18.46;55.47
71601;BME280;59446;52.192;4.628;2023-03-23T23:11:13;99755.81;;;18.42;56.05
71601;BME280;59446;52.192;4.628;2023-03-23T23:13:40;99745.16;;;18.44;56.17
71601;BME280;59446;52.192;4.628;2023-03-23T23:16:07;99755.94;;;18.41;56.03
71601;BME280;59446;52.192;4.628;2023-03-23T23:18:34;99744.66;;;18.39;56.20
71601;BME280;59446;52.192;4.628;2023-03-23T23:21:07;99742.97;;;18.38;56.14
71601;BME280;59446;52.192;4.628;2023-03-23T23:23:33;99732.44;;;18.38;56.21
71601;BME280;59446;52.192;4.628;2023-03-23T23:26:00;99736.75;;;18.39;56.02
71601;BME280;59446;52.192;4.628;2023-03-23T23:28:26;99735.16;;;18.36;56.57
71601;BME280;59446;52.192;4.628;2023-03-23T23:30:52;99729.31;;;18.33;56.34
71601;BME280;59446;52.192;4.628;2023-03-23T23:33:18;99710.72;;;18.34;56.09
71601;BME280;59446;52.192;4.628;2023-03-23T23:35:44;99702.00;;;18.34;56.10
71601;BME280;59446;52.192;4.628;2023-03-23T23:38:09;99711.81;;;18.32;56.23
71601;BME280;59446;52.192;4.628;2023-03-23T23:40:37;99703.91;;;18.32;56.49
71601;BME280;59446;52.192;4.628;2023-03-23T23:43:03;99688.09;;;18.32;56.23
71601;BME280;59446;52.192;4.628;2023-03-23T23:45:29;99689.78;;;18.33;56.14
71601;BME280;59446;52.192;4.628;2023-03-23T23:47:55;99688.47;;;18.27;56.10
71601;BME280;59446;52.192;4.628;2023-03-23T23:50:21;99686.53;;;18.29;56.26
71601;BME280;59446;52.192;4.628;2023-03-23T23:52:46;99690.00;;;18.30;56.28
71601;BME280;59446;52.192;4.628;2023-03-23T23:55:15;99687.38;;;18.30;56.17
71601;BME280;59446;52.192;4.628;2023-03-23T23:57:45;99674.44;;;18.27;56.16
